Time;durP1;ratioP1;P1;durP2;ratioP2;P2;SDS_P1;SDS_P2;PMS_P1;PMS_P2;Temp;Humidity;BMP_temperature;BMP_pressure;BME280_temperature;BME280_humidity;BME280_pressure;Samples;Min_cycle;Max_cycle;Signal;HPM_P1;HPM_P2
2022/03/25 00:00:45;;;;;;;9.32;6.47;;;2.90;99.90;;;;;;5043458;28;20025;-34
2022/03/25 00:03:11;;;;;;;15.40;6.57;;;3.00;99.90;;;;;;5045423;28;20029;-33
2022/03/25 00:05:36;;;;;;;9.15;5.47;;;2.70;99.90;;;;;;5050880;28;21184;-35
2022/03/25 00:08:02;;;;;;;13.13;6.93;;;2.70;99.90;;;;;;5045816;28;20024;-33
2022/03/25 00:10:28;;;;;;;10.82;6.13;;;2.60;99.90;;;;;;5044569;28;21854;-36
2022/03/25 00:12:54;;;;;;;11.05;5.75;;;2.50;99.90;;;;;;5041740;28;20039;-33
2022/03/25 00:15:20;;;;;;;9.30;6.63;;;2.50;99.90;;;;;;5046186;28;20493;-35
2022/03/25 00:17:46;;;;;;;9.90;5.50;;;2.40;99.90;;;;;;5048101;28;20068;-34
2022/03/25 00:20:11;;;;;;;9.85;6.45;;;2.30;99.90;;;;;;5046404;28;20067;-34
2022/03/25 00:22:37;;;;;;;13.82;7.18;;;2.10;99.90;;;;;;5043536;28;20021;-33
2022/03/25 00:25:05;;;;;;;16.52;6.50;;;2.10;99.90;;;;;;5046566;28;20036;-33
2022/03/25 00:27:32;;;;;;;14.32;7.32;;;2.20;99.90;;;;;;5046412;28;20033;-33
2022/03/25 00:29:58;;;;;;;11.00;5.50;;;2.10;99.90;;;;;;5046663;28;20120;-33
2022/03/25 00:32:24;;;;;;;11.32;5.60;;;1.90;99.90;;;;;;5045497;28;20047;-35
2022/03/25 00:34:49;;;;;;;9.25;6.03;;;1.80;99.90;;;;;;5045119;28;20039;-33
2022/03/25 00:37:15;;;;;;;8.68;5.43;;;1.60;99.90;;;;;;5048386;28;20029;-34
2022/03/25 00:39:41;;;;;;;13.60;6.72;;;1.50;99.90;;;;;;5048113;28;20056;-34
2022/03/25 00:42:09;;;;;;;12.30;6.38;;;1.50;99.90;;;;;;5045383;28;20048;-34
2022/03/25 00:44:35;;;;;;;9.38;6.25;;;1.40;99.90;;;;;;5046699;28;20398;-34
2022/03/25 00:47:02;;;;;;;11.45;6.35;;;1.40;99.90;;;;;;5047344;28;20040;-34
2022/03/25 00:49:28;;;;;;;10.50;6.20;;;1.40;99.90;;;;;;5045394;28;20123;-33
2022/03/25 00:51:54;;;;;;;13.43;7.25;;;1.40;99.90;;;;;;5045934;28;20029;-34
2022/03/25 00:54:20;;;;;;;15.93;6.78;;;1.50;99.90;;;;;;5045201;28;20351;-34
2022/03/25 00:56:45;;;;;;;9.65;6.50;;;1.60;99.90;;;;;;5048587;28;20025;-34
2022/03/25 00:59:11;;;;;;;10.30;5.35;;;1.70;99.90;;;;;;5048259;28;20673;-33
2022/03/25 01:01:38;;;;;;;9.90;6.28;;;1.70;99.90;;;;;;5044988;28;20086;-34
2022/03/25 01:04:04;;;;;;;12.95;6.88;;;1.60;99.90;;;;;;5053782;28;20040;-34
2022/03/25 01:06:29;;;;;;;7.57;5.18;;;1.50;99.90;;;;;;5050404;28;20501;-33
2022/03/25 01:08:55;;;;;;;11.82;6.32;;;1.50;99.90;;;;;;5043847;28;20037;-33
2022/03/25 01:11:21;;;;;;;9.52;5.05;;;1.60;99.90;;;;;;5046284;28;20031;-34
2022/03/25 01:13:47;;;;;;;13.02;6.82;;;1.50;99.90;;;;;;5042990;28;20033;-33
2022/03/25 01:16:12;;;;;;;15.07;6.75;;;1.60;99.90;;;;;;5048539;28;21524;-33
2022/03/25 01:18:38;;;;;;;9.88;5.90;;;1.50;99.90;;;;;;5041514;28;20033;-34
2022/03/25 01:21:04;;;;;;;8.43;5.05;;;1.40;99.90;;;;;;5049426;28;20029;-35
2022/03/25 01:23:29;;;;;;;10.40;5.60;;;1.30;99.90;;;;;;5049195;28;20114;-34
2022/03/25 01:25:55;;;;;;;11.68;5.97;;;1.40;99.90;;;;;;5040631;28;20041;-34
2022/03/25 01:28:21;;;;;;;16.95;6.65;;;1.40;99.90;;;;;;5046870;28;20215;-34
2022/03/25 01:30:47;;;;;;;11.65;6.20;;;1.40;99.90;;;;;;5046138;28;20124;-33
2022/03/25 01:33:14;;;;;;;11.68;6.22;;;1.50;99.90;;;;;;5046108;28;20024;-33
2022/03/25 01:35:41;;;;;;;13.60;6.45;;;1.50;99.90;;;;;;5043129;28;20016;-33
2022/03/25 01:38:07;;;;;;;9.55;5.88;;;1.30;99.90;;;;;;5046640;28;20036;-34
2022/03/25 01:40:33;;;;;;;8.48;5.65;;;1.20;99.90;;;;;;5048238;28;20032;-33
2022/03/25 01:42:59;;;;;;;8.73;5.40;;;1.00;99.90;;;;;;5055021;28;20036;-36
2022/03/25 01:45:35;;;;;;;10.43;6.25;;;0.70;99.90;;;;;;5044598;28;20746;-34
2022/03/25 01:48:06;;;;;;;11.43;5.55;;;0.50;99.90;;;;;;5043063;28;20036;-33
2022/03/25 01:50:32;;;;;;;7.53;5.25;;;0.80;99.90;;;;;;5048843;28;21440;-36
2022/03/25 01:52:58;;;;;;;13.35;6.72;;;1.00;99.90;;;;;;5047705;28;20028;-33
2022/03/25 01:55:26;;;;;;;11.30;5.65;;;1.20;99.90;;;;;;5041267;28;20028;-34
2022/03/25 01:57:57;;;;;;;12.40;5.85;;;1.20;99.90;;;;;;5049990;28;20068;-33
2022/03/25 02:00:24;;;;;;;9.95;5.68;;;1.30;99.90;;;;;;5048411;28;20107;-34
2022/03/25 02:02:50;;;;;;;8.70;6.30;;;1.20;99.90;;;;;;5043916;28;20581;-33
2022/03/25 02:05:17;;;;;;;8.15;5.80;;;1.00;99.90;;;;;;5048458;28;20040;-33
2022/03/25 02:07:43;;;;;;;9.88;5.72;;;1.10;99.90;;;;;;5044777;28;20044;-33
2022/03/25 02:10:09;;;;;;;11.85;6.18;;;1.00;99.90;;;;;;5046068;28;20033;-34
2022/03/25 02:12:35;;;;;;;9.18;5.15;;;0.90;99.90;;;;;;5045877;28;20144;-33
2022/03/25 02:15:02;;;;;;;10.02;5.60;;;0.70;99.90;;;;;;5043334;28;20497;-34
2022/03/25 02:17:27;;;;;;;10.52;5.90;;;0.40;99.90;;;;;;5044768;28;20705;-33
2022/03/25 02:19:53;;;;;;;13.65;6.00;;;0.50;99.90;;;;;;5044694;28;20060;-34
2022/03/25 02:22:19;;;;;;;10.50;5.50;;;0.50;99.90;;;;;;5043842;28;20039;-34
2022/03/25 02:24:44;;;;;;;9.68;5.43;;;0.40;99.90;;;;;;5045068;28;20608;-34
2022/03/25 02:27:12;;;;;;;12.15;6.35;;;0.30;99.90;;;;;;5043268;28;20045;-33
2022/03/25 02:29:39;;;;;;;12.73;6.95;;;0.50;99.90;;;;;;5045635;28;20469;-34
2022/03/25 02:32:05;;;;;;;12.55;6.43;;;0.60;99.90;;;;;;5045133;28;20107;-33
2022/03/25 02:34:31;;;;;;;12.95;6.05;;;0.60;99.90;;;;;;5045575;28;20099;-34
2022/03/25 02:36:57;;;;;;;9.35;6.03;;;0.60;99.90;;;;;;5051476;28;20032;-34
2022/03/25 02:39:23;;;;;;;10.77;6.70;;;0.70;99.90;;;;;;5050803;28;20093;-34
2022/03/25 02:41:49;;;;;;;10.65;5.90;;;0.80;99.90;;;;;;5047523;28;20129;-33
2022/03/25 02:44:15;;;;;;;8.32;5.28;;;0.90;99.90;;;;;;5049749;28;20115;-34
2022/03/25 02:46:40;;;;;;;8.50;5.57;;;0.80;99.90;;;;;;5049425;28;20032;-34
2022/03/25 02:49:06;;;;;;;9.25;5.55;;;0.70;99.90;;;;;;5051089;28;20035;-33
2022/03/25 02:51:31;;;;;;;13.50;6.53;;;0.40;99.90;;;;;;5043716;28;20060;-33
2022/03/25 02:53:57;;;;;;;11.30;6.60;;;0.50;99.90;;;;;;5054083;28;21727;-34
2022/03/25 02:56:24;;;;;;;14.27;6.63;;;0.60;99.90;;;;;;5049463;28;20082;-33
2022/03/25 02:58:50;;;;;;;16.73;7.28;;;0.70;99.90;;;;;;5046108;28;20036;-33
2022/03/25 03:01:16;;;;;;;10.82;6.18;;;0.80;99.90;;;;;;5046450;28;20606;-35
2022/03/25 03:03:41;;;;;;;8.63;6.22;;;0.60;99.90;;;;;;5046928;28;20179;-34
2022/03/25 03:06:07;;;;;;;9.50;6.50;;;0.50;99.90;;;;;;5047013;28;20662;-34
2022/03/25 03:08:35;;;;;;;14.13;6.15;;;0.50;99.90;;;;;;5047399;28;20044;-33
2022/03/25 03:11:02;;;;;;;13.07;6.85;;;0.60;99.90;;;;;;5046730;28;20041;-34
2022/03/25 03:13:27;;;;;;;11.48;5.93;;;0.70;99.90;;;;;;5047007;28;20043;-33
2022/03/25 03:15:53;;;;;;;13.05;5.55;;;0.70;99.90;;;;;;5046913;28;20054;-33
2022/03/25 03:18:20;;;;;;;10.98;5.03;;;0.60;99.90;;;;;;5047660;28;20037;-33
2022/03/25 03:20:46;;;;;;;9.85;5.70;;;0.30;99.90;;;;;;5043854;28;20060;-34
2022/03/25 03:23:12;;;;;;;15.05;7.68;;;0.00;99.90;;;;;;5046938;28;20132;-34
2022/03/25 03:25:38;;;;;;;14.68;7.28;;;0.00;99.90;;;;;;5047989;28;20032;-33
2022/03/25 03:28:04;;;;;;;13.52;7.30;;;0.30;99.90;;;;;;5046393;28;20956;-34
2022/03/25 03:30:30;;;;;;;14.07;7.25;;;0.40;99.90;;;;;;5046718;28;20295;-33
2022/03/25 03:32:57;;;;;;;14.30;7.53;;;0.50;99.90;;;;;;5048224;28;20052;-33
2022/03/25 03:35:28;;;;;;;12.40;6.40;;;0.60;99.90;;;;;;5049071;28;20466;-36
2022/03/25 03:37:54;;;;;;;12.63;7.25;;;0.60;99.90;;;;;;5049502;28;20064;-33
2022/03/25 03:40:20;;;;;;;10.77;6.03;;;0.60;99.90;;;;;;5051127;28;20079;-34
2022/03/25 03:42:46;;;;;;;16.05;7.95;;;0.60;99.90;;;;;;5042711;28;20028;-34
2022/03/25 03:45:14;;;;;;;11.65;6.05;;;0.60;99.90;;;;;;5051238;28;20032;-34
2022/03/25 03:47:40;;;;;;;14.52;6.35;;;0.60;99.90;;;;;;5044177;28;20033;-35
2022/03/25 03:50:09;;;;;;;12.20;6.97;;;0.40;99.90;;;;;;5045050;28;20032;-35
2022/03/25 03:52:35;;;;;;;21.65;7.45;;;0.50;99.90;;;;;;5047858;28;20071;-34
2022/03/25 03:55:03;;;;;;;11.40;7.00;;;0.50;99.90;;;;;;5045605;28;20045;-37
2022/03/25 03:57:29;;;;;;;9.70;5.20;;;0.30;99.90;;;;;;5049836;28;20036;-34
2022/03/25 03:59:55;;;;;;;11.68;5.72;;;0.20;99.90;;;;;;5049027;28;20032;-34
2022/03/25 04:02:21;;;;;;;12.20;6.03;;;0.20;99.90;;;;;;5047176;28;20032;-33
2022/03/25 04:04:47;;;;;;;11.52;6.35;;;0.00;99.90;;;;;;5047821;28;20501;-34
2022/03/25 04:07:13;;;;;;;13.63;7.32;;;0.00;99.90;;;;;;5044114;28;20762;-35
2022/03/25 04:09:39;;;;;;;12.65;6.35;;;-0.20;99.90;;;;;;5051775;28;20063;-34
2022/03/25 04:12:06;;;;;;;14.13;7.28;;;-0.30;99.90;;;;;;5049112;28;20525;-36
2022/03/25 04:14:31;;;;;;;11.00;6.50;;;-0.50;99.90;;;;;;5047779;28;20036;-36
2022/03/25 04:16:57;;;;;;;11.95;6.63;;;-0.40;99.90;;;;;;5051403;28;20028;-33
2022/03/25 04:19:22;;;;;;;13.07;6.60;;;-0.50;99.90;;;;;;5050722;28;20562;-34
2022/03/25 04:21:48;;;;;;;11.38;6.82;;;-0.40;99.90;;;;;;5047864;28;20043;-36
2022/03/25 04:24:14;;;;;;;10.32;6.60;;;-0.40;99.90;;;;;;5048976;28;20091;-34
2022/03/25 04:26:39;;;;;;;11.35;7.75;;;-0.40;99.90;;;;;;5047291;28;20616;-34
2022/03/25 04:29:06;;;;;;;12.05;5.78;;;-0.30;99.90;;;;;;5049369;28;20045;-34
2022/03/25 04:31:32;;;;;;;11.02;7.00;;;-0.30;99.90;;;;;;5049387;28;20033;-34
2022/03/25 04:33:57;;;;;;;15.63;7.75;;;-0.30;99.90;;;;;;5045364;28;20033;-33
2022/03/25 04:36:23;;;;;;;12.50;6.85;;;-0.20;99.90;;;;;;5053028;28;20033;-35
2022/03/25 04:38:49;;;;;;;14.75;6.50;;;-0.20;99.90;;;;;;5056705;28;20059;-33
2022/03/25 04:41:14;;;;;;;13.90;5.85;;;0.00;99.90;;;;;;5063044;28;20137;-33
2022/03/25 04:43:40;;;;;;;11.15;6.20;;;0.00;99.90;;;;;;5058314;28;20537;-33
2022/03/25 04:46:06;;;;;;;13.23;6.88;;;-0.10;99.90;;;;;;5056197;28;20632;-33
2022/03/25 04:48:32;;;;;;;8.55;6.15;;;-0.30;99.90;;;;;;5053218;28;20036;-33
2022/03/25 04:50:59;;;;;;;9.10;5.00;;;-0.30;99.90;;;;;;5053779;28;20392;-34
2022/03/25 04:53:25;;;;;;;10.18;6.30;;;-0.40;99.90;;;;;;5059486;28;20028;-34
2022/03/25 04:55:52;;;;;;;11.40;5.40;;;-0.50;99.90;;;;;;5056958;28;20390;-32
2022/03/25 04:58:18;;;;;;;10.13;6.90;;;-0.60;99.90;;;;;;5059648;28;20521;-33
2022/03/25 05:00:44;;;;;;;8.32;6.28;;;-0.60;99.90;;;;;;5057039;28;20063;-33
2022/03/25 05:03:09;;;;;;;10.25;7.15;;;-0.70;99.90;;;;;;5055892;28;20105;-33
2022/03/25 05:05:35;;;;;;;7.93;6.32;;;-0.80;99.90;;;;;;5056541;28;20174;-33
2022/03/25 05:08:01;;;;;;;12.20;6.15;;;-0.90;99.90;;;;;;5059341;28;20035;-34
2022/03/25 05:10:27;;;;;;;9.05;5.95;;;-0.90;99.90;;;;;;5062661;28;20032;-32
2022/03/25 05:12:53;;;;;;;10.75;6.07;;;-1.00;99.90;;;;;;5062107;28;20124;-33
2022/03/25 05:15:19;;;;;;;15.30;7.00;;;-1.10;99.90;;;;;;5059557;28;20167;-32
2022/03/25 05:17:51;;;;;;;18.25;8.57;;;-0.90;99.90;;;;;;5057656;28;21293;-33
2022/03/25 05:20:19;;;;;;;13.35;7.85;;;-0.70;99.90;;;;;;5053341;28;20406;-34
2022/03/25 05:22:46;;;;;;;;;;;-0.50;99.90;;;;;;5061286;28;20774;-33
2022/03/25 05:25:11;;;;;;;11.20;6.32;;;-0.50;99.90;;;;;;5059859;28;19916;-34
2022/03/25 05:27:54;;;;;;;11.88;6.78;;;-0.40;99.90;;;;;;5058235;28;20089;-34
2022/03/25 05:30:26;;;;;;;13.65;6.95;;;-0.30;99.90;;;;;;5055689;28;20559;-33
2022/03/25 05:32:52;;;;;;;17.40;7.18;;;-0.20;99.90;;;;;;5054276;28;20064;-33
2022/03/25 05:35:19;;;;;;;11.05;6.43;;;-0.20;99.90;;;;;;5060731;28;20557;-33
2022/03/25 05:37:45;;;;;;;17.02;8.77;;;-0.20;99.90;;;;;;5061433;28;20127;-33
2022/03/25 05:40:12;;;;;;;12.85;6.70;;;-0.20;99.90;;;;;;5057070;28;20021;-32
2022/03/25 05:42:38;;;;;;;10.13;7.22;;;-0.20;99.90;;;;;;5063425;28;20121;-33
2022/03/25 05:45:05;;;;;;;11.38;5.28;;;-0.20;99.90;;;;;;5058198;28;20089;-32
2022/03/25 05:47:31;;;;;;;11.80;5.85;;;-0.20;99.90;;;;;;5061602;28;20032;-32
2022/03/25 05:49:57;;;;;;;12.80;6.78;;;-0.20;99.90;;;;;;5053460;28;20594;-33
2022/03/25 05:52:24;;;;;;;14.60;7.55;;;-0.20;99.90;;;;;;5054003;28;20040;-33
2022/03/25 05:54:50;;;;;;;11.88;6.25;;;-0.30;99.90;;;;;;5053891;28;20120;-32
2022/03/25 05:57:16;;;;;;;13.98;6.32;;;-0.30;99.90;;;;;;5058917;28;20028;-33
2022/03/25 05:59:45;;;;;;;15.07;7.50;;;-0.40;99.90;;;;;;5056180;28;20496;-32
2022/03/25 06:02:11;;;;;;;16.65;7.43;;;-0.30;99.90;;;;;;5064575;28;20094;-33
2022/03/25 06:04:37;;;;;;;8.05;5.38;;;-0.50;99.90;;;;;;5055086;28;20666;-33
2022/03/25 06:07:03;;;;;;;11.00;5.70;;;-0.40;99.90;;;;;;5061926;28;20477;-34
2022/03/25 06:09:29;;;;;;;11.45;7.55;;;-0.50;99.90;;;;;;5059469;28;20052;-36
2022/03/25 06:11:55;;;;;;;11.95;6.82;;;-0.50;99.90;;;;;;5054558;28;20128;-32
2022/03/25 06:14:21;;;;;;;15.68;7.20;;;-0.40;99.90;;;;;;5058746;28;20079;-33
2022/03/25 06:16:46;;;;;;;10.80;6.45;;;-0.30;99.90;;;;;;5054832;28;20021;-34
2022/03/25 06:19:13;;;;;;;11.35;6.25;;;-0.20;99.90;;;;;;5055062;28;20029;-32
2022/03/25 06:21:39;;;;;;;12.52;6.32;;;-0.30;99.90;;;;;;5053005;28;20029;-33
2022/03/25 06:24:05;;;;;;;9.10;5.65;;;-0.20;99.90;;;;;;5050630;28;20847;-33
2022/03/25 06:26:31;;;;;;;17.58;7.53;;;-0.10;99.90;;;;;;5056208;28;20051;-33
2022/03/25 06:28:56;;;;;;;13.18;8.02;;;0.10;99.90;;;;;;5069151;28;20385;-32
2022/03/25 06:31:22;;;;;;;15.68;7.80;;;0.20;99.90;;;;;;5070871;28;20033;-33
2022/03/25 06:33:48;;;;;;;14.43;7.95;;;0.40;99.90;;;;;;5058797;28;20036;-33
2022/03/25 06:36:13;;;;;;;13.50;8.25;;;0.60;99.90;;;;;;5053590;28;20043;-33
2022/03/25 06:38:40;;;;;;;12.55;6.78;;;0.80;99.90;;;;;;5055186;28;20029;-33
2022/03/25 06:41:07;;;;;;;15.23;8.88;;;0.90;99.90;;;;;;5057295;28;20024;-32
2022/03/25 06:43:34;;;;;;;12.48;8.25;;;1.00;99.90;;;;;;5055985;28;20504;-32
2022/03/25 06:45:59;;;;;;;16.70;7.90;;;1.20;99.90;;;;;;5053873;28;20048;-34
2022/03/25 06:48:25;;;;;;;19.80;8.00;;;1.20;99.90;;;;;;5056510;28;20029;-33
2022/03/25 06:50:51;;;;;;;16.95;7.97;;;1.40;99.90;;;;;;5055295;28;20051;-33
2022/03/25 06:53:17;;;;;;;13.40;7.68;;;1.50;99.90;;;;;;5057008;28;20024;-33
2022/03/25 06:55:44;;;;;;;19.10;8.65;;;1.70;99.90;;;;;;5058988;28;20028;-33
2022/03/25 06:58:10;;;;;;;23.52;9.93;;;1.80;99.90;;;;;;5056006;28;20066;-32
2022/03/25 07:00:37;;;;;;;23.35;10.55;;;1.90;99.90;;;;;;5052454;28;20080;-33
2022/03/25 07:03:03;;;;;;;17.73;8.85;;;2.10;99.90;;;;;;5058971;28;20401;-33
2022/03/25 07:05:31;;;;;;;17.13;8.90;;;2.20;99.90;;;;;;5054282;28;20137;-35
2022/03/25 07:07:58;;;;;;;25.02;10.93;;;2.40;99.90;;;;;;5058611;28;20109;-32
2022/03/25 07:10:26;;;;;;;28.52;9.30;;;2.60;99.90;;;;;;5062013;28;20077;-33
2022/03/25 07:12:53;;;;;;;19.70;9.98;;;2.70;99.90;;;;;;5059559;28;20131;-33
2022/03/25 07:15:20;;;;;;;20.92;10.13;;;2.80;99.90;;;;;;5052164;28;20036;-33
2022/03/25 07:17:46;;;;;;;19.88;8.98;;;2.90;99.90;;;;;;5056592;28;20060;-32
2022/03/25 07:20:14;;;;;;;21.05;8.65;;;3.00;99.90;;;;;;5058614;28;20025;-33
2022/03/25 07:22:44;;;;;;;24.33;10.60;;;3.20;99.90;;;;;;5055680;28;20032;-32
2022/03/25 07:25:11;;;;;;;16.67;9.32;;;3.40;99.90;;;;;;5058809;28;20110;-36
2022/03/25 07:27:37;;;;;;;17.63;8.93;;;3.50;99.90;;;;;;5057066;28;20032;-34
2022/03/25 07:30:04;;;;;;;18.50;8.88;;;3.60;99.90;;;;;;5058308;28;20137;-32
2022/03/25 07:32:30;;;;;;;21.92;9.40;;;3.70;99.90;;;;;;5058703;28;20032;-32
2022/03/25 07:34:56;;;;;;;19.10;9.07;;;3.80;99.90;;;;;;5056087;28;20028;-33
2022/03/25 07:37:22;;;;;;;19.52;10.38;;;3.90;99.90;;;;;;5055146;28;20025;-33
2022/03/25 07:39:48;;;;;;;21.30;10.70;;;4.00;99.90;;;;;;5059308;28;20060;-32
2022/03/25 07:42:14;;;;;;;20.98;10.15;;;4.20;99.90;;;;;;5054422;28;20029;-32
2022/03/25 07:44:40;;;;;;;16.77;9.75;;;4.40;99.90;;;;;;5051868;28;20662;-34
2022/03/25 07:47:07;;;;;;;20.23;10.52;;;4.60;99.90;;;;;;5051289;28;20035;-32
2022/03/25 07:49:34;;;;;;;18.35;8.45;;;4.90;99.90;;;;;;5051814;28;20064;-32
2022/03/25 07:52:00;;;;;;;31.25;11.23;;;5.10;99.90;;;;;;5055792;28;20039;-32
2022/03/25 07:54:26;;;;;;;17.58;9.18;;;5.30;99.90;;;;;;5054024;28;20013;-33
2022/03/25 07:56:55;;;;;;;19.35;9.50;;;5.50;99.90;;;;;;5055345;28;20086;-33
2022/03/25 07:59:20;;;;;;;22.02;10.55;;;5.80;99.90;;;;;;5061048;28;20084;-34
2022/03/25 08:01:46;;;;;;;27.83;12.05;;;6.00;99.90;;;;;;5054795;28;20038;-33
2022/03/25 08:04:11;;;;;;;23.00;11.63;;;6.30;99.90;;;;;;5056745;28;20037;-32
2022/03/25 08:06:37;;;;;;;19.48;11.25;;;6.50;99.90;;;;;;5055100;28;20047;-34
2022/03/25 08:09:03;;;;;;;21.45;11.30;;;6.80;99.90;;;;;;5051101;28;20059;-33
2022/03/25 08:11:29;;;;;;;20.73;11.05;;;7.10;97.20;;;;;;5067533;28;20075;-32
2022/03/25 08:13:54;;;;;;;24.40;11.40;;;7.30;96.60;;;;;;5060298;28;20103;-32
2022/03/25 08:16:20;;;;;;;24.67;11.02;;;7.60;92.70;;;;;;5056755;28;20028;-33
2022/03/25 08:18:45;;;;;;;21.27;11.13;;;7.80;94.50;;;;;;5055569;28;20025;-33
2022/03/25 08:21:11;;;;;;;27.25;12.05;;;7.90;91.30;;;;;;5058296;28;20081;-33
2022/03/25 08:29:05;;;;;;;25.35;11.10;;;8.70;77.90;;;;;;5057385;28;20421;-33
2022/03/25 08:31:34;;;;;;;25.98;12.40;;;8.80;78.10;;;;;;5055175;28;20037;-32
2022/03/25 08:34:04;;;;;;;25.27;12.23;;;9.00;90.20;;;;;;5053189;28;20024;-33
2022/03/25 08:36:29;;;;;;;23.45;11.40;;;9.30;76.90;;;;;;5053758;28;20024;-32
2022/03/25 08:38:55;;;;;;;29.45;12.45;;;9.40;80.20;;;;;;5058277;28;20028;-33
2022/03/25 08:41:21;;;;;;;25.48;11.60;;;9.50;77.40;;;;;;5059536;28;20032;-33
2022/03/25 08:43:47;;;;;;;26.48;12.88;;;9.70;77.10;;;;;;5059668;28;20097;-32
2022/03/25 08:46:13;;;;;;;23.30;11.63;;;9.80;62.80;;;;;;5057356;28;20628;-32
2022/03/25 08:48:39;;;;;;;23.55;12.00;;;9.90;70.80;;;;;;5052172;28;20115;-32
2022/03/25 08:51:05;;;;;;;30.17;12.35;;;10.10;65.40;;;;;;5058189;28;20043;-33
2022/03/25 08:53:31;;;;;;;29.40;12.68;;;10.30;62.10;;;;;;5056644;28;20048;-33
2022/03/25 08:55:56;;;;;;;25.83;12.65;;;10.40;64.00;;;;;;5060875;28;20029;-33
2022/03/25 08:58:22;;;;;;;21.67;10.93;;;10.60;64.00;;;;;;5055800;28;20025;-32
2022/03/25 09:00:48;;;;;;;28.83;12.55;;;10.80;67.60;;;;;;5062310;28;20103;-32
2022/03/25 09:03:13;;;;;;;26.35;11.65;;;10.90;60.00;;;;;;5061257;28;20065;-32
2022/03/25 09:05:39;;;;;;;29.55;13.45;;;11.00;59.50;;;;;;5056912;28;20032;-33
2022/03/25 09:08:06;;;;;;;27.30;13.30;;;11.00;57.60;;;;;;5058065;28;20024;-32
2022/03/25 09:10:32;;;;;;;29.40;13.50;;;11.20;58.00;;;;;;5054460;28;20029;-33
2022/03/25 09:12:58;;;;;;;25.15;12.55;;;11.30;56.00;;;;;;5054846;28;20033;-32
2022/03/25 09:15:25;;;;;;;29.58;13.23;;;11.30;56.30;;;;;;5056792;28;20020;-33
2022/03/25 09:17:51;;;;;;;30.95;12.85;;;11.50;60.50;;;;;;5052063;28;20108;-32
2022/03/25 09:20:17;;;;;;;29.00;13.52;;;11.70;58.50;;;;;;5055930;28;20119;-32
2022/03/25 09:22:43;;;;;;;24.77;13.18;;;11.80;62.90;;;;;;5057622;28;20051;-32
2022/03/25 09:25:11;;;;;;;29.00;13.30;;;11.90;56.60;;;;;;5058581;28;20032;-32
2022/03/25 09:27:39;;;;;;;28.67;12.90;;;11.90;55.40;;;;;;5054607;28;20055;-31
2022/03/25 09:30:05;;;;;;;28.17;13.10;;;11.90;58.70;;;;;;5056014;28;20131;-32
2022/03/25 09:32:31;;;;;;;30.80;14.20;;;12.00;56.80;;;;;;5052966;28;20098;-34
2022/03/25 09:35:09;;;;;;;32.90;14.50;;;12.10;58.80;;;;;;5056738;28;20024;-32
2022/03/25 09:37:41;;;;;;;28.30;13.25;;;12.40;55.60;;;;;;5054591;28;20114;-35
2022/03/25 09:40:10;;;;;;;30.40;13.70;;;12.40;55.00;;;;;;5054512;28;20037;-33
2022/03/25 09:42:39;;;;;;;30.98;13.23;;;12.50;52.90;;;;;;5058304;28;20056;-32
2022/03/25 09:45:06;;;;;;;31.90;14.35;;;12.80;59.20;;;;;;5059455;28;20029;-33
2022/03/25 09:47:32;;;;;;;27.27;14.18;;;12.90;54.60;;;;;;5062493;28;20032;-32
2022/03/25 09:50:02;;;;;;;29.83;14.10;;;12.90;56.30;;;;;;5059438;28;20127;-32
2022/03/25 09:52:29;;;;;;;33.58;13.75;;;13.00;51.10;;;;;;5059706;28;20040;-32
2022/03/25 09:54:55;;;;;;;34.93;14.20;;;13.10;50.60;;;;;;5057783;28;20033;-33
2022/03/25 09:57:21;;;;;;;28.80;13.18;;;13.30;49.40;;;;;;5059830;28;20404;-32
2022/03/25 09:59:47;;;;;;;29.33;13.45;;;13.50;51.10;;;;;;5061814;28;20033;-32
2022/03/25 10:02:12;;;;;;;43.33;13.55;;;13.60;53.70;;;;;;5057410;28;20068;-32
2022/03/25 10:04:45;;;;;;;35.70;14.05;;;13.80;46.30;;;;;;5063408;28;20147;-33
2022/03/25 10:07:23;;;;;;;28.52;14.68;;;13.70;49.40;;;;;;5064785;28;20059;-33
2022/03/25 10:10:08;;;;;;;27.92;13.32;;;13.70;47.20;;;;;;5067924;28;20113;-34
2022/03/25 10:12:34;;;;;;;29.40;14.68;;;13.80;47.80;;;;;;5052547;28;20035;-34
2022/03/25 10:15:25;;;;;;;27.02;13.55;;;13.90;45.70;;;;;;5060843;28;20027;-34
2022/03/25 10:17:59;;;;;;;22.92;12.55;;;14.00;43.40;;;;;;5055267;28;20088;-34
2022/03/25 10:20:26;;;;;;;28.17;14.07;;;14.10;42.90;;;;;;5060871;28;20029;-33
2022/03/25 10:22:59;;;;;;;31.30;14.07;;;14.20;45.50;;;;;;5056653;28;20032;-34
2022/03/25 10:25:55;;;;;;;31.10;13.00;;;14.20;46.10;;;;;;5064964;28;20543;-34
2022/03/25 10:28:23;;;;;;;29.63;14.00;;;14.30;45.40;;;;;;5057528;28;20052;-34
2022/03/25 10:30:51;;;;;;;30.83;13.55;;;14.20;43.20;;;;;;5056770;28;20040;-32
2022/03/25 10:33:28;;;;;;;28.92;14.13;;;14.20;46.50;;;;;;5056206;28;20060;-33
2022/03/25 10:35:56;;;;;;;31.63;14.25;;;14.40;44.70;;;;;;5056160;28;20031;-34
2022/03/25 10:38:22;;;;;;;;;;;14.40;47.40;;;;;;5056298;28;20060;-32
2022/03/25 10:40:57;;;;;;;32.22;13.80;;;14.30;42.70;;;;;;5058100;28;20429;-35
2022/03/25 10:43:24;;;;;;;33.28;16.08;;;14.30;44.20;;;;;;5056874;28;20569;-32
2022/03/25 10:45:50;;;;;;;30.77;15.05;;;14.40;43.40;;;;;;5060199;28;20425;-35
2022/03/25 10:48:20;;;;;;;29.48;13.82;;;14.50;44.90;;;;;;5061210;28;20037;-32
2022/03/25 10:51:11;;;;;;;30.23;13.73;;;14.60;42.70;;;;;;5056315;28;20037;-32
2022/03/25 10:53:38;;;;;;;35.00;14.95;;;14.70;44.60;;;;;;5056637;28;20565;-32
2022/03/25 10:56:07;;;;;;;31.05;14.48;;;14.70;44.70;;;;;;5060260;28;20081;-32
2022/03/25 10:58:34;;;;;;;30.08;14.50;;;15.00;45.20;;;;;;5056881;28;20020;-33
2022/03/25 11:01:00;;;;;;;31.77;15.27;;;14.90;42.70;;;;;;5055502;28;20034;-32
2022/03/25 11:03:27;;;;;;;33.10;14.75;;;15.00;44.70;;;;;;5063116;28;20016;-32
2022/03/25 11:05:53;;;;;;;30.38;14.68;;;14.90;44.80;;;;;;5059378;28;20043;-33
2022/03/25 11:08:19;;;;;;;32.42;14.73;;;14.90;43.30;;;;;;5056791;28;20377;-32
2022/03/25 11:10:45;;;;;;;30.02;15.50;;;15.10;44.40;;;;;;5057441;28;20036;-31
2022/03/25 11:13:11;;;;;;;31.33;14.45;;;15.20;44.90;;;;;;5052505;28;20033;-33
2022/03/25 11:15:38;;;;;;;30.77;15.23;;;15.30;43.80;;;;;;5054558;28;20673;-33
2022/03/25 11:18:05;;;;;;;35.73;16.07;;;15.30;43.80;;;;;;5058385;28;20445;-32
2022/03/25 11:20:31;;;;;;;32.17;15.00;;;15.40;48.70;;;;;;5055813;28;20281;-32
2022/03/25 11:23:12;;;;;;;35.63;15.40;;;15.50;44.00;;;;;;5083660;28;20036;-33
2022/03/25 11:25:46;;;;;;;31.90;15.45;;;15.50;43.10;;;;;;5053847;28;20104;-32
2022/03/25 11:28:26;;;;;;;31.77;15.60;;;15.50;45.60;;;;;;5059401;28;20068;-32
2022/03/25 11:31:00;;;;;;;30.40;14.32;;;15.70;43.90;;;;;;5053143;28;20465;-32
2022/03/25 11:33:27;;;;;;;34.45;15.20;;;15.80;41.20;;;;;;5058781;28;20039;-33
2022/03/25 11:36:28;;;;;;;31.77;15.88;;;15.80;42.90;;;;;;5053586;28;21687;-33
2022/03/25 11:39:16;;;;;;;33.47;15.63;;;15.80;42.40;;;;;;5027928;28;20036;-33
2022/03/25 11:41:42;;;;;;;32.10;15.65;;;15.80;42.70;;;;;;5055844;28;20115;-33
2022/03/25 11:44:14;;;;;;;30.67;14.10;;;15.80;42.70;;;;;;5056646;28;20041;-32
2022/03/25 11:47:13;;;;;;;35.58;16.88;;;15.90;42.30;;;;;;5059809;28;20025;-32
2022/03/25 11:49:38;;;;;;;31.30;14.85;;;15.90;44.50;;;;;;5059998;28;20225;-32
2022/03/25 11:52:29;;;;;;;28.30;13.65;;;15.90;44.30;;;;;;5054831;28;20032;-32
2022/03/25 11:54:59;;;;;;;31.10;15.10;;;16.10;40.80;;;;;;5048337;28;20037;-32
2022/03/25 11:57:33;;;;;;;31.13;14.88;;;16.00;41.70;;;;;;5053922;28;20071;-33
2022/03/25 12:00:10;;;;;;;30.85;15.00;;;16.00;41.20;;;;;;5057452;28;20582;-33
2022/03/25 12:02:38;;;;;;;28.20;15.17;;;16.10;43.80;;;;;;5051383;28;20097;-32
2022/03/25 12:05:24;;;;;;;34.90;15.63;;;16.00;42.10;;;;;;5055571;28;20463;-34
2022/03/25 12:08:31;;;;;;;26.85;14.35;;;16.20;41.20;;;;;;5054484;28;20283;-33
2022/03/25 12:10:57;;;;;;;;;;;16.10;38.50;;;;;;5057153;28;20744;-32
2022/03/25 12:13:53;;;;;;;28.23;13.43;;;16.10;38.50;;;;;;5057932;28;19968;-32
2022/03/25 12:16:52;;;;;;;26.77;13.70;;;16.30;40.90;;;;;;5052816;28;20040;-32
2022/03/25 12:19:28;;;;;;;28.58;13.45;;;16.30;39.00;;;;;;5054310;28;20028;-32
2022/03/25 12:22:02;;;;;;;25.88;13.77;;;16.30;40.40;;;;;;5054169;28;20032;-32
2022/03/25 12:24:30;;;;;;;28.75;14.18;;;16.30;38.80;;;;;;5054880;28;20028;-33
2022/03/25 12:27:00;;;;;;;;;;;16.50;39.20;;;;;;5055159;28;20142;-34
2022/03/25 12:29:31;;;;;;;24.13;12.88;;;16.40;39.60;;;;;;5055052;28;20015;-32
2022/03/25 12:32:00;;;;;;;22.80;11.90;;;16.40;41.20;;;;;;5050670;28;20127;-36
2022/03/25 12:34:40;;;;;;;24.48;12.48;;;16.40;34.90;;;;;;5051753;28;20060;-35
2022/03/25 12:37:09;;;;;;;27.33;14.27;;;16.30;34.40;;;;;;5055022;28;20482;-32
2022/03/25 12:39:35;;;;;;;24.23;12.55;;;16.30;36.40;;;;;;5056467;28;20039;-33
2022/03/25 12:42:10;;;;;;;20.83;10.40;;;16.40;34.00;;;;;;5057315;28;20028;-33
2022/03/25 12:44:35;;;;;;;25.75;12.45;;;16.30;30.80;;;;;;5054114;28;20033;-32
2022/03/25 12:47:02;;;;;;;24.15;12.75;;;16.40;34.60;;;;;;5056264;28;20039;-32
2022/03/25 12:49:28;;;;;;;26.35;13.07;;;16.30;34.50;;;;;;5054822;28;20071;-33